This is the latest recevied weather packets stored in our database for station/object OK2CME-6. If no packets are shown the sender has not sent any weather packets the latest 10 day(s).
| Time | Temp. | Humidity | Pressure | Rain* | Wind** | Luminosity | Snow |
|---|---|---|---|---|---|---|---|
| 1777548351 | 8.89° C | 38% | 1031.7 hPa | 0 mm | - | 644 W/m² | - |
| 1777545951 | 8.89° C | 40% | 1032.1 hPa | 0 mm | - | 633 W/m² | - |
| 1777544751 | 7.78° C | 41% | 1032.2 hPa | 0 mm | - | 633 W/m² | - |
| 1777543551 | 7.78° C | 43% | 1032.2 hPa | 0 mm | - | 621 W/m² | - |
| 1777542351 | 7.22° C | 44% | 1032.4 hPa | 0 mm | - | 603 W/m² | - |
| 1777539951 | 6.67° C | 45% | 1032.3 hPa | 0 mm | - | 553 W/m² | - |
| 1777538751 | 6.11° C | 45% | 1032.5 hPa | 0 mm | - | 522 W/m² | - |
| 1777537551 | 6.11° C | 45% | 1032.4 hPa | 0 mm | - | 485 W/m² | - |
| 1777536351 | 6.11° C | 45% | 1032.4 hPa | 0 mm | - | 447 W/m² | - |
| 1777535151 | 6.11° C | 45% | 1032.5 hPa | 0 mm | - | 402 W/m² | - |
| 1777533951 | 5° C | 47% | 1032.5 hPa | 0 mm | - | 355 W/m² | - |
| 1777532751 | 5° C | 48% | 1032.3 hPa | 0 mm | - | 308 W/m² | - |
| 1777531551 | 4.44° C | 48% | 1032.3 hPa | 0 mm | - | 259 W/m² | - |
| 1777530351 | 3.89° C | 50% | 1032.1 hPa | 0 mm | - | 209 W/m² | - |
| 1777529151 | 3.33° C | 54% | 1032.2 hPa | 0 mm | - | 127 W/m² | - |
| 1777527951 | 2.78° C | 55% | 1032.1 hPa | 0 mm | - | 104 W/m² | - |
| 1777526751 | 2.22° C | 56% | 1032 hPa | 0 mm | - | 84 W/m² | - |
| 1777525551 | 1.67° C | 59% | 1031.9 hPa | 0 mm | - | 54 W/m² | - |
| 1777524350 | 0.56° C | 62% | 1031.7 hPa | 0 mm | - | 32 W/m² | - |
| 1777523150 | -0.56° C | 64% | 1031.5 hPa | 0 mm | - | 17 W/m² | - |
| 1777521950 | -1.11° C | 66% | 1031.5 hPa | 0 mm | - | 7 W/m² | - |
| 1777520750 | -1.11° C | 66% | 1031.5 hPa | 0 mm | - | 1 W/m² | - |
| 1777519551 | -0.56° C | 65% | 1031.6 hPa | 0 mm | - | 0 W/m² | - |
| 1777518350 | -0.56° C | 63% | 1031.2 hPa | 0 mm | - | 0 W/m² | - |
| 1777517150 | 0° C | 62% | 1031.3 hPa | 0 mm | - | 0 W/m² | - |
* Rain latest hour (hover to see other rain measurements)
** Current wind speed in m/s (hover to see current wind gust speed)